sensor_id;sensor_type;location;lat;lon;timestamp;P1;durP1;ratioP1;P2;durP2;ratioP2
24421;SDS011;12600;53.326;-6.298;2023-04-25T00:01:25;16.70;;;7.78;;
24421;SDS011;12600;53.326;-6.298;2023-04-25T00:04:15;15.60;;;6.63;;
24421;SDS011;12600;53.326;-6.298;2023-04-25T00:07:05;9.70;;;4.40;;
24421;SDS011;12600;53.326;-6.298;2023-04-25T00:09:55;10.23;;;4.70;;
24421;SDS011;12600;53.326;-6.298;2023-04-25T00:12:45;5.40;;;3.33;;
24421;SDS011;12600;53.326;-6.298;2023-04-25T00:15:35;7.75;;;3.70;;
24421;SDS011;12600;53.326;-6.298;2023-04-25T00:18:26;5.88;;;3.15;;
24421;SDS011;12600;53.326;-6.298;2023-04-25T00:21:16;6.30;;;3.08;;
24421;SDS011;12600;53.326;-6.298;2023-04-25T00:24:07;8.13;;;3.38;;
24421;SDS011;12600;53.326;-6.298;2023-04-25T00:26:58;8.32;;;3.20;;
24421;SDS011;12600;53.326;-6.298;2023-04-25T00:29:47;5.75;;;3.25;;
24421;SDS011;12600;53.326;-6.298;2023-04-25T00:32:36;5.72;;;3.10;;
24421;SDS011;12600;53.326;-6.298;2023-04-25T00:35:26;6.93;;;3.30;;
24421;SDS011;12600;53.326;-6.298;2023-04-25T00:38:15;5.22;;;3.10;;
24421;SDS011;12600;53.326;-6.298;2023-04-25T00:41:05;11.45;;;3.45;;
24421;SDS011;12600;53.326;-6.298;2023-04-25T00:43:57;6.05;;;3.40;;
24421;SDS011;12600;53.326;-6.298;2023-04-25T00:46:47;5.57;;;3.20;;
24421;SDS011;12600;53.326;-6.298;2023-04-25T00:49:37;9.77;;;3.63;;
24421;SDS011;12600;53.326;-6.298;2023-04-25T00:52:27;6.18;;;2.95;;
24421;SDS011;12600;53.326;-6.298;2023-04-25T00:55:16;9.25;;;3.83;;
24421;SDS011;12600;53.326;-6.298;2023-04-25T00:58:05;7.10;;;3.92;;
24421;SDS011;12600;53.326;-6.298;2023-04-25T01:00:56;6.38;;;3.50;;
24421;SDS011;12600;53.326;-6.298;2023-04-25T01:03:47;9.30;;;3.73;;
24421;SDS011;12600;53.326;-6.298;2023-04-25T01:06:39;10.35;;;4.25;;
24421;SDS011;12600;53.326;-6.298;2023-04-25T01:09:30;12.07;;;5.15;;
24421;SDS011;12600;53.326;-6.298;2023-04-25T01:12:20;11.65;;;5.72;;
24421;SDS011;12600;53.326;-6.298;2023-04-25T01:15:10;16.02;;;6.10;;
24421;SDS011;12600;53.326;-6.298;2023-04-25T01:18:00;9.82;;;6.15;;
24421;SDS011;12600;53.326;-6.298;2023-04-25T01:20:51;9.45;;;4.85;;
24421;SDS011;12600;53.326;-6.298;2023-04-25T01:23:43;11.40;;;4.88;;
24421;SDS011;12600;53.326;-6.298;2023-04-25T01:26:33;8.70;;;4.70;;
24421;SDS011;12600;53.326;-6.298;2023-04-25T01:29:23;11.57;;;5.20;;
24421;SDS011;12600;53.326;-6.298;2023-04-25T01:32:13;12.05;;;5.20;;
24421;SDS011;12600;53.326;-6.298;2023-04-25T01:35:04;10.82;;;5.55;;
24421;SDS011;12600;53.326;-6.298;2023-04-25T01:37:56;16.23;;;5.32;;
24421;SDS011;12600;53.326;-6.298;2023-04-25T01:40:47;12.75;;;5.30;;
24421;SDS011;12600;53.326;-6.298;2023-04-25T01:43:39;13.05;;;5.95;;
24421;SDS011;12600;53.326;-6.298;2023-04-25T01:46:29;13.82;;;5.90;;
24421;SDS011;12600;53.326;-6.298;2023-04-25T01:49:19;15.00;;;5.90;;
24421;SDS011;12600;53.326;-6.298;2023-04-25T01:52:08;16.55;;;6.50;;
24421;SDS011;12600;53.326;-6.298;2023-04-25T01:54:58;14.55;;;6.05;;
24421;SDS011;12600;53.326;-6.298;2023-04-25T01:57:53;12.13;;;6.18;;
24421;SDS011;12600;53.326;-6.298;2023-04-25T02:00:55;14.20;;;7.15;;
24421;SDS011;12600;53.326;-6.298;2023-04-25T02:03:49;14.30;;;6.97;;
24421;SDS011;12600;53.326;-6.298;2023-04-25T02:06:53;15.25;;;7.07;;
24421;SDS011;12600;53.326;-6.298;2023-04-25T02:09:44;17.30;;;7.10;;
24421;SDS011;12600;53.326;-6.298;2023-04-25T02:12:36;16.10;;;6.75;;
24421;SDS011;12600;53.326;-6.298;2023-04-25T02:16:06;13.55;;;6.57;;
24421;SDS011;12600;53.326;-6.298;2023-04-25T02:18:57;15.60;;;6.57;;
24421;SDS011;12600;53.326;-6.298;2023-04-25T02:21:47;14.98;;;7.22;;
24421;SDS011;12600;53.326;-6.298;2023-04-25T02:24:36;16.67;;;7.30;;
24421;SDS011;12600;53.326;-6.298;2023-04-25T02:27:26;17.75;;;7.30;;
24421;SDS011;12600;53.326;-6.298;2023-04-25T02:30:16;16.95;;;7.05;;
24421;SDS011;12600;53.326;-6.298;2023-04-25T02:33:07;18.48;;;7.55;;
24421;SDS011;12600;53.326;-6.298;2023-04-25T02:35:56;22.83;;;8.10;;
24421;SDS011;12600;53.326;-6.298;2023-04-25T02:38:45;16.52;;;7.78;;
24421;SDS011;12600;53.326;-6.298;2023-04-25T02:41:35;17.42;;;8.27;;
24421;SDS011;12600;53.326;-6.298;2023-04-25T02:44:24;19.08;;;8.27;;
24421;SDS011;12600;53.326;-6.298;2023-04-25T02:47:13;19.20;;;7.90;;
24421;SDS011;12600;53.326;-6.298;2023-04-25T02:50:05;22.25;;;8.32;;
24421;SDS011;12600;53.326;-6.298;2023-04-25T02:52:56;23.60;;;8.55;;
24421;SDS011;12600;53.326;-6.298;2023-04-25T02:55:51;21.77;;;9.13;;
24421;SDS011;12600;53.326;-6.298;2023-04-25T02:58:41;18.35;;;8.63;;
24421;SDS011;12600;53.326;-6.298;2023-04-25T03:01:31;22.35;;;9.55;;
24421;SDS011;12600;53.326;-6.298;2023-04-25T03:04:20;26.13;;;9.25;;
24421;SDS011;12600;53.326;-6.298;2023-04-25T03:07:12;24.05;;;9.88;;
24421;SDS011;12600;53.326;-6.298;2023-04-25T03:10:01;19.88;;;8.98;;
24421;SDS011;12600;53.326;-6.298;2023-04-25T03:12:53;21.00;;;8.60;;
24421;SDS011;12600;53.326;-6.298;2023-04-25T03:15:43;23.98;;;8.95;;
24421;SDS011;12600;53.326;-6.298;2023-04-25T03:18:32;23.35;;;9.85;;
24421;SDS011;12600;53.326;-6.298;2023-04-25T03:21:21;23.77;;;9.75;;
24421;SDS011;12600;53.326;-6.298;2023-04-25T03:24:12;24.85;;;10.05;;
24421;SDS011;12600;53.326;-6.298;2023-04-25T03:27:02;23.67;;;10.02;;
24421;SDS011;12600;53.326;-6.298;2023-04-25T03:29:51;26.30;;;10.82;;
24421;SDS011;12600;53.326;-6.298;2023-04-25T03:32:41;28.40;;;9.95;;
24421;SDS011;12600;53.326;-6.298;2023-04-25T03:35:34;29.98;;;11.00;;
24421;SDS011;12600;53.326;-6.298;2023-04-25T03:38:23;29.27;;;10.75;;
24421;SDS011;12600;53.326;-6.298;2023-04-25T03:41:14;23.98;;;10.32;;
24421;SDS011;12600;53.326;-6.298;2023-04-25T03:44:07;25.52;;;10.70;;
24421;SDS011;12600;53.326;-6.298;2023-04-25T03:46:56;27.25;;;10.52;;
24421;SDS011;12600;53.326;-6.298;2023-04-25T03:49:46;27.75;;;10.95;;
24421;SDS011;12600;53.326;-6.298;2023-04-25T03:52:38;27.30;;;12.30;;
24421;SDS011;12600;53.326;-6.298;2023-04-25T03:55:28;28.63;;;11.43;;
24421;SDS011;12600;53.326;-6.298;2023-04-25T03:58:19;33.83;;;13.68;;
24421;SDS011;12600;53.326;-6.298;2023-04-25T04:01:10;32.17;;;15.05;;
24421;SDS011;12600;53.326;-6.298;2023-04-25T04:04:00;32.83;;;14.43;;
24421;SDS011;12600;53.326;-6.298;2023-04-25T04:06:50;28.20;;;12.55;;
24421;SDS011;12600;53.326;-6.298;2023-04-25T04:09:44;31.85;;;10.95;;
24421;SDS011;12600;53.326;-6.298;2023-04-25T04:12:40;26.52;;;10.32;;
24421;SDS011;12600;53.326;-6.298;2023-04-25T04:15:32;30.00;;;11.38;;
24421;SDS011;12600;53.326;-6.298;2023-04-25T04:18:21;26.17;;;10.10;;
24421;SDS011;12600;53.326;-6.298;2023-04-25T04:21:11;28.15;;;10.63;;
24421;SDS011;12600;53.326;-6.298;2023-04-25T04:24:01;25.02;;;9.95;;
24421;SDS011;12600;53.326;-6.298;2023-04-25T04:26:59;27.23;;;9.90;;
24421;SDS011;12600;53.326;-6.298;2023-04-25T04:30:09;24.75;;;9.18;;
24421;SDS011;12600;53.326;-6.298;2023-04-25T04:33:14;26.75;;;9.63;;
24421;SDS011;12600;53.326;-6.298;2023-04-25T04:36:05;21.45;;;9.55;;
24421;SDS011;12600;53.326;-6.298;2023-04-25T04:38:55;23.17;;;9.35;;
24421;SDS011;12600;53.326;-6.298;2023-04-25T04:42:10;23.60;;;9.55;;
24421;SDS011;12600;53.326;-6.298;2023-04-25T04:45:12;22.75;;;8.95;;
24421;SDS011;12600;53.326;-6.298;2023-04-25T04:48:23;26.05;;;8.63;;
24421;SDS011;12600;53.326;-6.298;2023-04-25T04:51:33;23.38;;;9.70;;
24421;SDS011;12600;53.326;-6.298;2023-04-25T04:54:42;21.55;;;8.48;;
24421;SDS011;12600;53.326;-6.298;2023-04-25T04:57:50;19.85;;;8.00;;
24421;SDS011;12600;53.326;-6.298;2023-04-25T05:00:57;19.67;;;8.07;;
24421;SDS011;12600;53.326;-6.298;2023-04-25T05:04:11;28.17;;;8.07;;
24421;SDS011;12600;53.326;-6.298;2023-04-25T05:07:27;21.10;;;8.52;;
24421;SDS011;12600;53.326;-6.298;2023-04-25T05:10:39;20.15;;;8.23;;
24421;SDS011;12600;53.326;-6.298;2023-04-25T05:13:52;19.60;;;7.93;;
24421;SDS011;12600;53.326;-6.298;2023-04-25T05:17:20;23.70;;;9.35;;
24421;SDS011;12600;53.326;-6.298;2023-04-25T05:20:34;18.90;;;8.00;;
24421;SDS011;12600;53.326;-6.298;2023-04-25T05:23:35;23.17;;;9.45;;
24421;SDS011;12600;53.326;-6.298;2023-04-25T05:26:43;20.90;;;9.05;;
24421;SDS011;12600;53.326;-6.298;2023-04-25T05:30:08;24.92;;;8.55;;
24421;SDS011;12600;53.326;-6.298;2023-04-25T05:33:16;21.05;;;8.57;;
24421;SDS011;12600;53.326;-6.298;2023-04-25T05:36:08;23.38;;;8.70;;
24421;SDS011;12600;53.326;-6.298;2023-04-25T05:38:57;19.27;;;9.05;;
24421;SDS011;12600;53.326;-6.298;2023-04-25T05:42:05;23.65;;;10.82;;
24421;SDS011;12600;53.326;-6.298;2023-04-25T05:45:13;17.23;;;7.88;;
24421;SDS011;12600;53.326;-6.298;2023-04-25T05:48:23;15.55;;;7.30;;
24421;SDS011;12600;53.326;-6.298;2023-04-25T05:51:36;29.23;;;13.68;;
24421;SDS011;12600;53.326;-6.298;2023-04-25T05:54:40;34.25;;;18.40;;
24421;SDS011;12600;53.326;-6.298;2023-04-25T05:57:29;47.22;;;30.95;;
24421;SDS011;12600;53.326;-6.298;2023-04-25T06:00:19;55.08;;;32.35;;
24421;SDS011;12600;53.326;-6.298;2023-04-25T06:03:10;36.95;;;19.58;;
24421;SDS011;12600;53.326;-6.298;2023-04-25T06:06:05;30.90;;;15.95;;
24421;SDS011;12600;53.326;-6.298;2023-04-25T06:08:56;26.27;;;11.05;;
24421;SDS011;12600;53.326;-6.298;2023-04-25T06:11:45;25.92;;;10.68;;
24421;SDS011;12600;53.326;-6.298;2023-04-25T06:14:35;27.13;;;12.77;;
24421;SDS011;12600;53.326;-6.298;2023-04-25T06:17:24;37.13;;;20.05;;
24421;SDS011;12600;53.326;-6.298;2023-04-25T06:20:14;30.17;;;16.67;;
24421;SDS011;12600;53.326;-6.298;2023-04-25T06:23:03;30.95;;;14.38;;
24421;SDS011;12600;53.326;-6.298;2023-04-25T06:26:06;21.63;;;10.38;;
24421;SDS011;12600;53.326;-6.298;2023-04-25T06:28:58;22.58;;;8.43;;
24421;SDS011;12600;53.326;-6.298;2023-04-25T06:31:48;13.18;;;7.15;;
24421;SDS011;12600;53.326;-6.298;2023-04-25T06:34:38;16.67;;;8.07;;
24421;SDS011;12600;53.326;-6.298;2023-04-25T06:37:30;16.77;;;8.10;;
24421;SDS011;12600;53.326;-6.298;2023-04-25T06:43:12;18.92;;;8.23;;
24421;SDS011;12600;53.326;-6.298;2023-04-25T06:46:17;25.83;;;8.35;;
24421;SDS011;12600;53.326;-6.298;2023-04-25T06:49:08;26.98;;;8.43;;
24421;SDS011;12600;53.326;-6.298;2023-04-25T06:51:58;16.08;;;8.13;;
24421;SDS011;12600;53.326;-6.298;2023-04-25T06:54:47;17.92;;;8.73;;
24421;SDS011;12600;53.326;-6.298;2023-04-25T06:57:56;20.27;;;8.57;;
24421;SDS011;12600;53.326;-6.298;2023-04-25T07:01:05;18.42;;;8.50;;
24421;SDS011;12600;53.326;-6.298;2023-04-25T07:03:56;17.30;;;8.83;;
24421;SDS011;12600;53.326;-6.298;2023-04-25T07:06:46;17.83;;;9.10;;
24421;SDS011;12600;53.326;-6.298;2023-04-25T07:09:40;15.48;;;9.32;;
24421;SDS011;12600;53.326;-6.298;2023-04-25T07:12:30;17.70;;;9.18;;
24421;SDS011;12600;53.326;-6.298;2023-04-25T07:15:19;17.20;;;9.77;;
24421;SDS011;12600;53.326;-6.298;2023-04-25T07:18:11;19.45;;;9.63;;
24421;SDS011;12600;53.326;-6.298;2023-04-25T07:21:00;17.95;;;9.40;;
24421;SDS011;12600;53.326;-6.298;2023-04-25T07:23:52;21.00;;;8.98;;
24421;SDS011;12600;53.326;-6.298;2023-04-25T07:26:47;22.42;;;8.65;;
24421;SDS011;12600;53.326;-6.298;2023-04-25T07:29:47;16.17;;;7.90;;
24421;SDS011;12600;53.326;-6.298;2023-04-25T07:32:36;24.15;;;8.60;;
24421;SDS011;12600;53.326;-6.298;2023-04-25T07:35:28;18.25;;;8.73;;
24421;SDS011;12600;53.326;-6.298;2023-04-25T07:38:17;16.88;;;8.13;;
24421;SDS011;12600;53.326;-6.298;2023-04-25T07:41:07;19.42;;;9.05;;
24421;SDS011;12600;53.326;-6.298;2023-04-25T07:43:57;23.83;;;9.20;;
24421;SDS011;12600;53.326;-6.298;2023-04-25T07:46:46;23.27;;;8.95;;
24421;SDS011;12600;53.326;-6.298;2023-04-25T07:49:37;21.33;;;8.50;;
24421;SDS011;12600;53.326;-6.298;2023-04-25T07:52:29;17.70;;;8.48;;
24421;SDS011;12600;53.326;-6.298;2023-04-25T07:55:31;20.85;;;9.05;;
24421;SDS011;12600;53.326;-6.298;2023-04-25T07:58:27;17.67;;;8.85;;
24421;SDS011;12600;53.326;-6.298;2023-04-25T08:01:19;21.30;;;9.77;;
24421;SDS011;12600;53.326;-6.298;2023-04-25T08:04:14;23.23;;;10.32;;
24421;SDS011;12600;53.326;-6.298;2023-04-25T08:07:10;27.90;;;11.95;;
24421;SDS011;12600;53.326;-6.298;2023-04-25T08:10:13;23.05;;;11.98;;
24421;SDS011;12600;53.326;-6.298;2023-04-25T08:13:03;24.27;;;11.55;;
24421;SDS011;12600;53.326;-6.298;2023-04-25T08:15:54;23.42;;;12.68;;
24421;SDS011;12600;53.326;-6.298;2023-04-25T08:18:43;24.45;;;14.05;;
24421;SDS011;12600;53.326;-6.298;2023-04-25T08:21:32;24.60;;;12.50;;
24421;SDS011;12600;53.326;-6.298;2023-04-25T08:24:25;21.13;;;10.60;;
24421;SDS011;12600;53.326;-6.298;2023-04-25T08:27:17;22.70;;;11.38;;
24421;SDS011;12600;53.326;-6.298;2023-04-25T08:30:08;23.38;;;11.05;;
24421;SDS011;12600;53.326;-6.298;2023-04-25T08:32:59;20.20;;;10.70;;
24421;SDS011;12600;53.326;-6.298;2023-04-25T08:36:12;19.48;;;10.10;;
24421;SDS011;12600;53.326;-6.298;2023-04-25T08:39:17;22.00;;;10.48;;
24421;SDS011;12600;53.326;-6.298;2023-04-25T08:42:32;20.13;;;10.30;;
24421;SDS011;12600;53.326;-6.298;2023-04-25T08:45:24;13.43;;;7.93;;
24421;SDS011;12600;53.326;-6.298;2023-04-25T08:48:16;16.27;;;7.38;;
24421;SDS011;12600;53.326;-6.298;2023-04-25T08:51:07;11.88;;;5.70;;
24421;SDS011;12600;53.326;-6.298;2023-04-25T08:54:01;13.38;;;6.35;;
24421;SDS011;12600;53.326;-6.298;2023-04-25T08:57:19;11.85;;;5.72;;
24421;SDS011;12600;53.326;-6.298;2023-04-25T09:00:12;7.20;;;4.40;;
24421;SDS011;12600;53.326;-6.298;2023-04-25T09:03:04;7.63;;;4.15;;
24421;SDS011;12600;53.326;-6.298;2023-04-25T09:05:54;8.85;;;4.43;;
24421;SDS011;12600;53.326;-6.298;2023-04-25T09:08:44;11.02;;;4.18;;
24421;SDS011;12600;53.326;-6.298;2023-04-25T09:11:34;8.65;;;4.13;;
24421;SDS011;12600;53.326;-6.298;2023-04-25T09:14:29;9.80;;;4.35;;
24421;SDS011;12600;53.326;-6.298;2023-04-25T09:17:36;11.23;;;4.75;;
24421;SDS011;12600;53.326;-6.298;2023-04-25T09:20:27;9.20;;;4.70;;
24421;SDS011;12600;53.326;-6.298;2023-04-25T09:23:19;6.80;;;3.72;;
24421;SDS011;12600;53.326;-6.298;2023-04-25T09:26:09;8.00;;;3.47;;
24421;SDS011;12600;53.326;-6.298;2023-04-25T09:29:04;6.80;;;3.97;;
24421;SDS011;12600;53.326;-6.298;2023-04-25T09:32:12;8.27;;;4.13;;
24421;SDS011;12600;53.326;-6.298;2023-04-25T09:35:09;7.97;;;4.03;;
24421;SDS011;12600;53.326;-6.298;2023-04-25T09:37:59;6.30;;;4.00;;
24421;SDS011;12600;53.326;-6.298;2023-04-25T09:41:09;6.78;;;3.05;;
24421;SDS011;12600;53.326;-6.298;2023-04-25T09:44:05;6.47;;;3.15;;
24421;SDS011;12600;53.326;-6.298;2023-04-25T09:46:56;7.10;;;3.42;;
24421;SDS011;12600;53.326;-6.298;2023-04-25T09:49:49;9.98;;;3.80;;
24421;SDS011;12600;53.326;-6.298;2023-04-25T09:52:42;8.18;;;3.13;;
24421;SDS011;12600;53.326;-6.298;2023-04-25T09:55:40;8.43;;;3.42;;
24421;SDS011;12600;53.326;-6.298;2023-04-25T09:58:32;9.40;;;3.90;;
24421;SDS011;12600;53.326;-6.298;2023-04-25T10:01:26;9.25;;;3.22;;
24421;SDS011;12600;53.326;-6.298;2023-04-25T10:04:26;7.90;;;3.63;;
24421;SDS011;12600;53.326;-6.298;2023-04-25T10:07:32;7.03;;;3.20;;
24421;SDS011;12600;53.326;-6.298;2023-04-25T10:10:31;5.82;;;3.03;;
24421;SDS011;12600;53.326;-6.298;2023-04-25T10:13:23;4.72;;;3.17;;
24421;SDS011;12600;53.326;-6.298;2023-04-25T10:16:13;9.98;;;3.40;;
24421;SDS011;12600;53.326;-6.298;2023-04-25T10:19:03;8.23;;;3.33;;
24421;SDS011;12600;53.326;-6.298;2023-04-25T10:21:54;8.13;;;3.08;;
24421;SDS011;12600;53.326;-6.298;2023-04-25T10:24:53;8.20;;;3.00;;
24421;SDS011;12600;53.326;-6.298;2023-04-25T10:27:45;6.85;;;2.78;;
24421;SDS011;12600;53.326;-6.298;2023-04-25T10:30:34;6.85;;;3.00;;
24421;SDS011;12600;53.326;-6.298;2023-04-25T10:33:29;6.00;;;2.72;;
24421;SDS011;12600;53.326;-6.298;2023-04-25T10:36:23;5.50;;;3.42;;
24421;SDS011;12600;53.326;-6.298;2023-04-25T10:39:14;10.38;;;3.28;;
24421;SDS011;12600;53.326;-6.298;2023-04-25T10:42:12;10.10;;;3.20;;
24421;SDS011;12600;53.326;-6.298;2023-04-25T10:45:04;11.00;;;2.92;;
24421;SDS011;12600;53.326;-6.298;2023-04-25T10:47:55;7.68;;;3.15;;
24421;SDS011;12600;53.326;-6.298;2023-04-25T10:50:44;8.90;;;3.00;;
24421;SDS011;12600;53.326;-6.298;2023-04-25T10:53:33;8.68;;;3.05;;
24421;SDS011;12600;53.326;-6.298;2023-04-25T10:56:24;10.95;;;3.35;;
24421;SDS011;12600;53.326;-6.298;2023-04-25T10:59:17;8.77;;;2.75;;
24421;SDS011;12600;53.326;-6.298;2023-04-25T11:02:12;8.02;;;3.50;;
24421;SDS011;12600;53.326;-6.298;2023-04-25T11:05:02;9.10;;;3.33;;
24421;SDS011;12600;53.326;-6.298;2023-04-25T11:07:53;11.68;;;3.58;;
24421;SDS011;12600;53.326;-6.298;2023-04-25T11:10:47;11.48;;;3.25;;
24421;SDS011;12600;53.326;-6.298;2023-04-25T11:13:38;12.07;;;3.50;;
24421;SDS011;12600;53.326;-6.298;2023-04-25T11:16:27;9.43;;;3.40;;
24421;SDS011;12600;53.326;-6.298;2023-04-25T11:19:20;9.32;;;4.10;;
24421;SDS011;12600;53.326;-6.298;2023-04-25T11:22:09;5.22;;;3.40;;
24421;SDS011;12600;53.326;-6.298;2023-04-25T11:25:04;10.18;;;3.08;;
24421;SDS011;12600;53.326;-6.298;2023-04-25T11:27:55;10.85;;;3.50;;
24421;SDS011;12600;53.326;-6.298;2023-04-25T11:33:37;7.55;;;3.25;;
24421;SDS011;12600;53.326;-6.298;2023-04-25T11:36:29;10.52;;;3.97;;
24421;SDS011;12600;53.326;-6.298;2023-04-25T11:39:19;6.22;;;3.30;;
24421;SDS011;12600;53.326;-6.298;2023-04-25T11:42:08;8.65;;;3.40;;
24421;SDS011;12600;53.326;-6.298;2023-04-25T11:45:00;7.60;;;3.40;;
24421;SDS011;12600;53.326;-6.298;2023-04-25T11:47:49;10.10;;;3.80;;
24421;SDS011;12600;53.326;-6.298;2023-04-25T11:50:39;11.38;;;3.92;;
24421;SDS011;12600;53.326;-6.298;2023-04-25T11:53:30;7.40;;;3.70;;
24421;SDS011;12600;53.326;-6.298;2023-04-25T11:56:20;11.38;;;4.18;;
24421;SDS011;12600;53.326;-6.298;2023-04-25T11:59:09;10.10;;;3.28;;
24421;SDS011;12600;53.326;-6.298;2023-04-25T12:02:00;9.45;;;3.35;;
24421;SDS011;12600;53.326;-6.298;2023-04-25T12:04:49;4.95;;;3.40;;
24421;SDS011;12600;53.326;-6.298;2023-04-25T12:07:39;9.27;;;3.95;;
24421;SDS011;12600;53.326;-6.298;2023-04-25T12:10:31;8.95;;;3.80;;
24421;SDS011;12600;53.326;-6.298;2023-04-25T12:13:20;8.18;;;4.00;;
24421;SDS011;12600;53.326;-6.298;2023-04-25T12:16:11;10.02;;;4.50;;
24421;SDS011;12600;53.326;-6.298;2023-04-25T12:19:01;9.35;;;4.15;;
24421;SDS011;12600;53.326;-6.298;2023-04-25T12:21:50;10.82;;;4.05;;
24421;SDS011;12600;53.326;-6.298;2023-04-25T12:24:45;11.65;;;4.22;;
24421;SDS011;12600;53.326;-6.298;2023-04-25T12:27:36;17.42;;;4.55;;
24421;SDS011;12600;53.326;-6.298;2023-04-25T12:30:27;10.15;;;4.07;;
24421;SDS011;12600;53.326;-6.298;2023-04-25T12:33:16;12.55;;;4.10;;
24421;SDS011;12600;53.326;-6.298;2023-04-25T12:36:06;10.45;;;4.20;;
24421;SDS011;12600;53.326;-6.298;2023-04-25T12:38:58;10.15;;;3.97;;
24421;SDS011;12600;53.326;-6.298;2023-04-25T12:44:42;8.95;;;3.92;;
24421;SDS011;12600;53.326;-6.298;2023-04-25T12:47:31;10.90;;;3.42;;
24421;SDS011;12600;53.326;-6.298;2023-04-25T12:50:22;10.05;;;3.88;;
24421;SDS011;12600;53.326;-6.298;2023-04-25T12:53:11;11.05;;;3.90;;
24421;SDS011;12600;53.326;-6.298;2023-04-25T12:56:01;8.68;;;3.90;;
24421;SDS011;12600;53.326;-6.298;2023-04-25T12:58:50;10.45;;;3.60;;
24421;SDS011;12600;53.326;-6.298;2023-04-25T13:01:42;9.77;;;4.53;;
24421;SDS011;12600;53.326;-6.298;2023-04-25T13:04:32;11.60;;;3.47;;
24421;SDS011;12600;53.326;-6.298;2023-04-25T13:07:22;10.82;;;4.00;;
24421;SDS011;12600;53.326;-6.298;2023-04-25T13:10:11;8.40;;;3.80;;
24421;SDS011;12600;53.326;-6.298;2023-04-25T13:13:00;10.20;;;3.78;;
24421;SDS011;12600;53.326;-6.298;2023-04-25T13:15:50;8.82;;;4.03;;
24421;SDS011;12600;53.326;-6.298;2023-04-25T13:18:40;10.77;;;3.83;;
24421;SDS011;12600;53.326;-6.298;2023-04-25T13:21:30;13.30;;;4.53;;
24421;SDS011;12600;53.326;-6.298;2023-04-25T13:24:20;12.02;;;4.85;;
24421;SDS011;12600;53.326;-6.298;2023-04-25T13:27:09;9.45;;;4.65;;
24421;SDS011;12600;53.326;-6.298;2023-04-25T13:29:58;11.30;;;5.07;;
24421;SDS011;12600;53.326;-6.298;2023-04-25T13:32:48;11.50;;;4.97;;
24421;SDS011;12600;53.326;-6.298;2023-04-25T13:35:39;10.50;;;5.10;;
24421;SDS011;12600;53.326;-6.298;2023-04-25T13:38:30;11.18;;;5.05;;
24421;SDS011;12600;53.326;-6.298;2023-04-25T13:41:19;14.90;;;5.50;;
24421;SDS011;12600;53.326;-6.298;2023-04-25T13:44:08;14.63;;;5.25;;
24421;SDS011;12600;53.326;-6.298;2023-04-25T13:46:58;16.23;;;5.38;;
24421;SDS011;12600;53.326;-6.298;2023-04-25T13:49:47;12.35;;;5.72;;
24421;SDS011;12600;53.326;-6.298;2023-04-25T13:52:38;11.88;;;5.13;;
24421;SDS011;12600;53.326;-6.298;2023-04-25T13:55:28;14.30;;;5.43;;
24421;SDS011;12600;53.326;-6.298;2023-04-25T13:58:17;14.68;;;4.88;;
24421;SDS011;12600;53.326;-6.298;2023-04-25T14:01:07;17.58;;;5.70;;
24421;SDS011;12600;53.326;-6.298;2023-04-25T14:03:57;11.85;;;4.93;;
24421;SDS011;12600;53.326;-6.298;2023-04-25T14:06:46;13.90;;;4.75;;
24421;SDS011;12600;53.326;-6.298;2023-04-25T14:09:37;17.73;;;4.43;;
24421;SDS011;12600;53.326;-6.298;2023-04-25T14:12:26;12.85;;;5.00;;
24421;SDS011;12600;53.326;-6.298;2023-04-25T14:15:15;10.30;;;4.88;;
24421;SDS011;12600;53.326;-6.298;2023-04-25T14:18:05;14.77;;;4.50;;
24421;SDS011;12600;53.326;-6.298;2023-04-25T14:20:54;8.93;;;4.45;;
24421;SDS011;12600;53.326;-6.298;2023-04-25T14:23:43;9.68;;;4.32;;
24421;SDS011;12600;53.326;-6.298;2023-04-25T14:26:35;12.02;;;4.10;;
24421;SDS011;12600;53.326;-6.298;2023-04-25T14:29:24;8.38;;;3.38;;
24421;SDS011;12600;53.326;-6.298;2023-04-25T14:32:14;8.65;;;3.78;;
24421;SDS011;12600;53.326;-6.298;2023-04-25T14:35:03;11.60;;;4.30;;
24421;SDS011;12600;53.326;-6.298;2023-04-25T14:37:54;9.43;;;3.90;;
24421;SDS011;12600;53.326;-6.298;2023-04-25T14:40:43;12.07;;;3.53;;
24421;SDS011;12600;53.326;-6.298;2023-04-25T14:43:34;9.48;;;3.58;;
24421;SDS011;12600;53.326;-6.298;2023-04-25T14:46:23;8.82;;;3.63;;
24421;SDS011;12600;53.326;-6.298;2023-04-25T14:49:13;10.68;;;3.50;;
24421;SDS011;12600;53.326;-6.298;2023-04-25T14:52:03;10.35;;;3.22;;
24421;SDS011;12600;53.326;-6.298;2023-04-25T14:54:52;11.95;;;3.65;;
24421;SDS011;12600;53.326;-6.298;2023-04-25T14:57:42;7.68;;;3.60;;
24421;SDS011;12600;53.326;-6.298;2023-04-25T15:00:33;9.98;;;3.88;;
24421;SDS011;12600;53.326;-6.298;2023-04-25T15:03:22;9.98;;;3.20;;
24421;SDS011;12600;53.326;-6.298;2023-04-25T15:06:12;9.77;;;3.83;;
24421;SDS011;12600;53.326;-6.298;2023-04-25T15:09:01;7.80;;;3.03;;
24421;SDS011;12600;53.326;-6.298;2023-04-25T15:11:51;10.93;;;4.00;;
24421;SDS011;12600;53.326;-6.298;2023-04-25T15:14:41;8.93;;;3.45;;
24421;SDS011;12600;53.326;-6.298;2023-04-25T15:17:32;12.55;;;3.80;;
24421;SDS011;12600;53.326;-6.298;2023-04-25T15:20:21;9.80;;;3.72;;
24421;SDS011;12600;53.326;-6.298;2023-04-25T15:23:12;11.40;;;3.80;;
24421;SDS011;12600;53.326;-6.298;2023-04-25T15:26:01;10.98;;;3.90;;
24421;SDS011;12600;53.326;-6.298;2023-04-25T15:28:51;8.70;;;3.55;;
24421;SDS011;12600;53.326;-6.298;2023-04-25T15:31:40;13.38;;;4.03;;
24421;SDS011;12600;53.326;-6.298;2023-04-25T15:34:31;9.45;;;3.78;;
24421;SDS011;12600;53.326;-6.298;2023-04-25T15:37:22;6.47;;;3.30;;
24421;SDS011;12600;53.326;-6.298;2023-04-25T15:40:13;9.27;;;3.53;;
24421;SDS011;12600;53.326;-6.298;2023-04-25T15:43:03;9.70;;;3.92;;
24421;SDS011;12600;53.326;-6.298;2023-04-25T15:45:53;9.80;;;4.05;;
24421;SDS011;12600;53.326;-6.298;2023-04-25T15:48:42;8.52;;;3.25;;
24421;SDS011;12600;53.326;-6.298;2023-04-25T15:51:33;13.10;;;3.97;;
24421;SDS011;12600;53.326;-6.298;2023-04-25T15:54:23;12.10;;;3.90;;
24421;SDS011;12600;53.326;-6.298;2023-04-25T15:57:12;9.93;;;3.60;;
24421;SDS011;12600;53.326;-6.298;2023-04-25T16:00:02;9.38;;;3.80;;
24421;SDS011;12600;53.326;-6.298;2023-04-25T16:02:58;10.25;;;4.00;;
24421;SDS011;12600;53.326;-6.298;2023-04-25T16:05:47;10.50;;;4.35;;
24421;SDS011;12600;53.326;-6.298;2023-04-25T16:08:38;11.48;;;4.15;;
24421;SDS011;12600;53.326;-6.298;2023-04-25T16:11:28;14.07;;;4.55;;
24421;SDS011;12600;53.326;-6.298;2023-04-25T16:14:17;11.88;;;4.93;;
24421;SDS011;12600;53.326;-6.298;2023-04-25T16:17:07;10.98;;;4.65;;
24421;SDS011;12600;53.326;-6.298;2023-04-25T16:19:56;12.90;;;5.15;;
24421;SDS011;12600;53.326;-6.298;2023-04-25T16:22:47;15.20;;;4.85;;
24421;SDS011;12600;53.326;-6.298;2023-04-25T16:25:38;12.85;;;5.00;;
24421;SDS011;12600;53.326;-6.298;2023-04-25T16:28:29;13.73;;;5.28;;
24421;SDS011;12600;53.326;-6.298;2023-04-25T16:31:18;9.75;;;4.82;;
24421;SDS011;12600;53.326;-6.298;2023-04-25T16:34:07;13.57;;;5.13;;
24421;SDS011;12600;53.326;-6.298;2023-04-25T16:36:57;12.65;;;5.20;;
24421;SDS011;12600;53.326;-6.298;2023-04-25T16:39:47;13.63;;;4.80;;
24421;SDS011;12600;53.326;-6.298;2023-04-25T16:42:38;12.10;;;4.68;;
24421;SDS011;12600;53.326;-6.298;2023-04-25T16:45:27;13.27;;;5.05;;
24421;SDS011;12600;53.326;-6.298;2023-04-25T16:48:17;14.10;;;5.28;;
24421;SDS011;12600;53.326;-6.298;2023-04-25T16:51:10;10.30;;;5.03;;
24421;SDS011;12600;53.326;-6.298;2023-04-25T16:53:59;14.00;;;5.65;;
24421;SDS011;12600;53.326;-6.298;2023-04-25T16:56:48;14.23;;;5.75;;
24421;SDS011;12600;53.326;-6.298;2023-04-25T16:59:39;14.40;;;5.03;;
24421;SDS011;12600;53.326;-6.298;2023-04-25T17:02:29;13.48;;;5.38;;